Aguirre, PR (00704)

12:21 PM AST on January 31, 2015 (GMT -0400)
Manejo de Emergencias Guayama | Change Station
CLOSE
Current Station
Personal Weather Station
Location: Guayama, GUAYAMA
Elevation: 233 ft
Nearby Weather Stations

Elev 233 ft 17.98 °N, 66.11 °W | Updated 18 minutes ago

Partly Cloudy
Partly Cloudy
83.2 °F
Feels Like 87 °F
N
8.0
Wind Variable Wind from SE
Gusts 18.0 mph

Today
High -- | Low -- °F
--% Chance of Precip.
Yesterday
High -- | Low -- °F
Precip. -- in
6:57 AM 6:18 PM
Waxing Gibbous, 90% visible
Pressure 30.00 in
Visibility 10.0 miles
Clouds Few 3000 ft
Heat Index 87 °F
Dew Point 70 °F
Humidity 64%
Rainfall -999.00 in
Snow Depth Not available.
UV 8 out of 12
Pollen Not available.
Air Quality Not available.
Flu Activity Not available.
METAR TJPS 311550Z 12008KT 10SM FEW030 29/20 A3000

More Conditions Fewer Conditions

Pressure 30.00 in
Visibility 10.0 miles
Clouds Few 3000 ft
Heat Index 87 °F
Dew Point 70 °F
Humidity 64%
Rainfall -999.00 in
Snow Depth Not available.
UV 8 out of 12
Pollen Not available.
Air Quality Not available.
Flu Activity Not available.
METAR TJPS 311550Z 12008KT 10SM FEW030 29/20 A3000

More Conditions Fewer Conditions

10-Day Weather Forecast

Almanac

Astronomy

Jan. 31, 2015 Rise Set
Actual Time
Civil Twilight
Nautical Twilight
Astronomical Twilight
Moon
Length of Visible Light
Length of Day
Tomorrow will be .
, % of the Moon is Illuminated

Today's Extremes

State Highs State Lows

Community

WunderPhotos

Upload Photos

1,792,100 photos uploaded!

WunderBlogs® & News

Nearby

Air Quality

  Air Quality AQ Index Pollutant
Not available.

Snow Depth

Station Depth Elevation

Earthquake Activity

City Distance Mag. Time & Date
Minimum magnitude displayed is 2.5.

Coastal Water Temperatures

Place Temperature

Nearby Weather Stations